createdAt,value
2019-04-06T00:00:40.569Z,12.53
2019-04-06T00:03:09.237Z,12.51
2019-04-06T00:05:37.709Z,12.52
2019-04-06T00:08:06.231Z,12.51
2019-04-06T00:10:35.059Z,12.49
2019-04-06T00:13:03.491Z,12.50
2019-04-06T00:15:32.145Z,12.49
2019-04-06T00:18:01.042Z,12.47
2019-04-06T00:20:29.523Z,12.45
2019-04-06T00:22:57.952Z,12.46
2019-04-06T00:25:26.471Z,12.44
2019-04-06T00:27:54.864Z,12.47
2019-04-06T00:30:23.527Z,12.45
2019-04-06T00:32:53.639Z,12.48
2019-04-06T00:35:22.255Z,12.47
2019-04-06T00:37:50.870Z,12.47
2019-04-06T00:40:19.823Z,12.43
2019-04-06T00:42:48.752Z,12.43
2019-04-06T00:45:17.339Z,12.43
2019-04-06T00:47:45.748Z,12.43
2019-04-06T00:50:14.489Z,12.46
2019-04-06T00:52:42.917Z,12.48
2019-04-06T00:55:11.607Z,12.49
2019-04-06T00:57:40.060Z,12.51
2019-04-06T01:00:09.026Z,12.51
2019-04-06T01:02:37.587Z,12.54
2019-04-06T01:05:07.543Z,12.56
2019-04-06T01:07:36.013Z,12.58
2019-04-06T01:10:06.114Z,12.60
2019-04-06T01:12:34.747Z,12.66
2019-04-06T01:15:03.457Z,12.65
2019-04-06T01:17:32.094Z,12.67
2019-04-06T01:20:00.562Z,12.68
2019-04-06T01:22:29.578Z,12.69
2019-04-06T01:24:58.053Z,12.69
2019-04-06T01:27:26.641Z,12.69
2019-04-06T01:29:55.511Z,12.68
2019-04-06T01:32:23.935Z,12.69
2019-04-06T01:34:52.680Z,12.69
2019-04-06T01:37:21.220Z,12.68
2019-04-06T01:39:49.717Z,12.69
2019-04-06T01:42:19.667Z,12.66
2019-04-06T01:44:48.138Z,12.64
2019-04-06T01:47:16.794Z,12.62
2019-04-06T01:49:45.258Z,12.60
2019-04-06T01:52:14.101Z,12.59
2019-04-06T01:54:43.001Z,12.58
2019-04-06T01:57:11.461Z,12.57
2019-04-06T01:59:40.065Z,12.56
2019-04-06T02:02:26.767Z,12.53
2019-04-06T02:04:55.770Z,12.51
2019-04-06T02:07:24.253Z,12.50
2019-04-06T02:09:52.746Z,12.48
2019-04-06T02:12:21.282Z,12.44
2019-04-06T02:14:49.829Z,12.42
2019-04-06T02:17:18.262Z,12.40
2019-04-06T02:19:46.772Z,12.36
2019-04-06T02:22:15.191Z,12.33
2019-04-06T02:24:43.937Z,12.30
2019-04-06T02:27:12.719Z,12.26
2019-04-06T02:29:41.300Z,12.24
2019-04-06T02:32:20.269Z,12.25
2019-04-06T02:35:08.565Z,12.24
2019-04-06T02:37:47.916Z,12.20
2019-04-06T02:40:23.979Z,12.17
2019-04-06T02:42:59.951Z,12.18
2019-04-06T02:45:28.421Z,12.18
2019-04-06T02:47:57.210Z,12.14
2019-04-06T02:50:25.713Z,12.14
2019-04-06T02:52:54.223Z,12.13
2019-04-06T02:55:22.697Z,12.11
2019-04-06T02:57:51.224Z,12.08
2019-04-06T03:00:19.774Z,12.07
2019-04-06T03:02:48.711Z,12.06
2019-04-06T03:05:17.192Z,12.05
2019-04-06T03:07:45.604Z,12.03
2019-04-06T03:10:14.468Z,11.99
2019-04-06T03:12:42.953Z,11.97
2019-04-06T03:15:11.950Z,11.93
2019-04-06T03:17:40.354Z,11.93
2019-04-06T03:20:08.972Z,11.92
2019-04-06T03:22:37.422Z,11.90
2019-04-06T03:25:07.845Z,11.89
2019-04-06T03:27:36.331Z,11.88
2019-04-06T03:30:07.064Z,11.87
2019-04-06T03:32:35.714Z,11.85
2019-04-06T03:35:04.936Z,11.87
2019-04-06T03:37:33.397Z,11.83
2019-04-06T03:40:02.052Z,11.82
2019-04-06T03:42:30.597Z,11.80
2019-04-06T03:44:59.702Z,11.81
2019-04-06T03:47:28.379Z,11.79
2019-04-06T03:49:57.097Z,11.83
2019-04-06T03:52:25.679Z,11.79
2019-04-06T03:54:54.085Z,11.76
2019-04-06T03:57:22.602Z,11.81
2019-04-06T03:59:51.140Z,11.79
2019-04-06T04:02:19.688Z,11.81
2019-04-06T04:04:48.184Z,11.77
2019-04-06T04:07:16.761Z,11.77
2019-04-06T04:09:45.942Z,11.79
2019-04-06T04:12:14.344Z,11.75
2019-04-06T04:14:42.957Z,11.75
2019-04-06T04:17:11.448Z,11.72
2019-04-06T04:19:39.874Z,11.69
2019-04-06T04:22:08.281Z,11.66
2019-04-06T04:24:36.737Z,11.65
2019-04-06T04:27:05.343Z,11.65
2019-04-06T04:29:33.880Z,11.70
2019-04-06T04:32:02.586Z,11.72
2019-04-06T04:34:31.135Z,11.72
2019-04-06T04:36:59.498Z,11.75
2019-04-06T04:39:28.046Z,11.75
2019-04-06T04:41:56.466Z,11.80
2019-04-06T04:44:25.127Z,11.84
2019-04-06T04:46:53.575Z,11.84
2019-04-06T04:49:22.088Z,11.89
2019-04-06T04:51:50.574Z,11.94
2019-04-06T04:54:19.024Z,11.93
2019-04-06T04:56:47.406Z,11.95
2019-04-06T04:59:15.796Z,11.94
2019-04-06T05:01:44.668Z,11.95
2019-04-06T05:04:13.296Z,11.94
2019-04-06T05:06:42.140Z,11.96
2019-04-06T05:09:10.523Z,11.96
2019-04-06T05:11:39.325Z,11.98
2019-04-06T05:14:44.079Z,11.98
2019-04-06T05:17:12.711Z,11.98
2019-04-06T05:19:41.222Z,12.00
2019-04-06T05:22:09.900Z,12.02
2019-04-06T05:24:38.551Z,12.07
2019-04-06T05:27:07.405Z,12.08
2019-04-06T05:29:35.959Z,12.11
2019-04-06T05:32:04.616Z,12.17
2019-04-06T05:34:33.080Z,12.21
2019-04-06T05:37:01.609Z,12.23
2019-04-06T05:39:30.236Z,12.23
2019-04-06T05:41:58.751Z,12.27
2019-04-06T05:44:27.703Z,12.37
2019-04-06T05:46:56.308Z,12.45
2019-04-06T05:49:24.696Z,12.57
2019-04-06T05:51:53.231Z,12.66
2019-04-06T05:54:22.140Z,12.79
2019-04-06T05:56:50.623Z,12.98
2019-04-06T05:59:19.016Z,13.07
2019-04-06T06:01:49.003Z,13.19
2019-04-06T06:04:17.831Z,13.36
2019-04-06T06:06:46.684Z,13.51
2019-04-06T06:09:15.149Z,13.62
2019-04-06T06:11:43.857Z,13.72
2019-04-06T06:14:12.394Z,13.82
2019-04-06T06:16:40.925Z,13.83
2019-04-06T06:19:09.498Z,13.83
2019-04-06T06:21:37.901Z,13.84
2019-04-06T06:24:06.691Z,13.87
2019-04-06T06:26:35.157Z,13.89
2019-04-06T06:29:03.842Z,13.97
2019-04-06T06:31:32.263Z,14.03
2019-04-06T06:34:01.014Z,14.05
2019-04-06T06:36:29.579Z,14.09
2019-04-06T06:38:58.601Z,14.11
2019-04-06T06:41:27.035Z,14.11
2019-04-06T06:43:55.762Z,14.13
2019-04-06T06:46:24.427Z,14.14
2019-04-06T06:48:53.143Z,14.27
2019-04-06T06:51:21.569Z,14.35
2019-04-06T06:53:50.006Z,14.48
2019-04-06T06:56:18.423Z,14.70
2019-04-06T06:58:46.916Z,14.87
2019-04-06T07:01:15.435Z,15.04
2019-04-06T07:03:44.272Z,15.30
2019-04-06T07:06:12.759Z,15.53
2019-04-06T07:08:41.227Z,15.75
2019-04-06T07:11:09.930Z,15.82
2019-04-06T07:13:38.781Z,15.97
2019-04-06T07:16:07.278Z,16.08
2019-04-06T07:18:35.852Z,16.23
2019-04-06T07:21:04.778Z,16.51
2019-04-06T07:23:33.277Z,16.78
2019-04-06T07:26:01.840Z,16.91
2019-04-06T07:28:37.443Z,17.01
2019-04-06T07:31:00.419Z,17.24
2019-04-06T07:33:28.838Z,17.28
2019-04-06T07:35:57.594Z,17.33
2019-04-06T07:38:26.383Z,17.44
2019-04-06T07:40:55.037Z,17.55
2019-04-06T07:43:24.039Z,17.80
2019-04-06T07:45:52.906Z,17.93
2019-04-06T07:48:21.621Z,17.96
2019-04-06T07:50:50.051Z,17.94
2019-04-06T07:53:18.635Z,17.81
2019-04-06T07:55:47.115Z,17.82
2019-04-06T07:58:16.071Z,17.96
2019-04-06T08:00:44.994Z,17.86
2019-04-06T08:03:13.746Z,18.00
2019-04-06T08:05:42.451Z,17.90
2019-04-06T08:08:11.185Z,17.93
2019-04-06T08:10:39.822Z,17.98
2019-04-06T08:13:08.410Z,18.22
2019-04-06T08:15:36.889Z,18.39
2019-04-06T08:18:05.339Z,18.55
2019-04-06T08:20:33.900Z,18.87
2019-04-06T08:23:02.323Z,19.29
2019-04-06T08:25:30.847Z,19.54
2019-04-06T08:27:59.808Z,19.84
2019-04-06T08:30:28.753Z,20.14
2019-04-06T08:32:57.295Z,20.42
2019-04-06T08:35:26.857Z,20.78
2019-04-06T08:37:55.444Z,21.17
2019-04-06T08:40:23.971Z,21.31
2019-04-06T08:42:52.602Z,21.78
2019-04-06T08:45:21.307Z,22.21
2019-04-06T08:47:49.847Z,22.28
2019-04-06T08:50:18.343Z,22.53
2019-04-06T08:52:46.793Z,22.52
2019-04-06T08:55:15.368Z,23.05
2019-04-06T08:57:43.752Z,23.31
2019-04-06T09:00:12.343Z,23.78
2019-04-06T09:02:40.921Z,23.93
2019-04-06T09:05:10.008Z,24.08
2019-04-06T09:07:40.572Z,24.04
2019-04-06T09:10:08.834Z,24.09
2019-04-06T09:12:37.310Z,24.45
2019-04-06T09:15:08.505Z,24.93
2019-04-06T09:17:37.084Z,24.87
2019-04-06T09:20:07.600Z,24.47
2019-04-06T09:22:36.156Z,24.28
2019-04-06T09:25:06.881Z,24.37
2019-04-06T09:27:35.669Z,24.66
2019-04-06T09:30:05.550Z,24.14
2019-04-06T09:32:34.032Z,24.07
2019-04-06T09:35:02.857Z,24.07
2019-04-06T09:37:31.412Z,24.29
2019-04-06T09:39:59.877Z,24.38
2019-04-06T09:42:28.717Z,24.38
2019-04-06T09:45:01.606Z,24.71
2019-04-06T09:47:31.641Z,24.11
2019-04-06T09:50:04.465Z,23.88
2019-04-06T09:52:43.615Z,23.46
2019-04-06T09:55:19.759Z,23.45
2019-04-06T09:58:06.716Z,23.57
2019-04-06T10:00:48.938Z,23.96
2019-04-06T10:03:35.391Z,24.21
2019-04-06T10:06:08.298Z,24.19
2019-04-06T10:08:44.294Z,24.28
2019-04-06T10:11:30.551Z,24.08
2019-04-06T10:14:09.736Z,23.87
2019-04-06T10:16:39.804Z,23.55
2019-04-06T10:19:10.245Z,23.28
2019-04-06T10:21:52.447Z,23.12
2019-04-06T10:24:39.069Z,23.35
2019-04-06T10:27:09.216Z,23.74
2019-04-06T10:29:48.394Z,24.12
2019-04-06T10:32:26.366Z,24.56
2019-04-06T10:35:05.316Z,24.88
2019-04-06T10:37:41.016Z,25.62
2019-04-06T10:40:13.541Z,25.50
2019-04-06T10:42:43.586Z,25.32
2019-04-06T10:45:20.259Z,25.13
2019-04-06T10:47:52.789Z,25.01
2019-04-06T10:50:31.902Z,25.64
2019-04-06T10:53:02.183Z,25.40
2019-04-06T10:55:44.244Z,25.49
2019-04-06T10:58:14.362Z,25.48
2019-04-06T11:00:53.716Z,25.40
2019-04-06T11:03:35.972Z,25.71
2019-04-06T11:06:22.871Z,26.60
2019-04-06T11:08:55.439Z,27.56
2019-04-06T11:11:42.191Z,27.91
2019-04-06T11:14:28.420Z,28.34
2019-04-06T11:17:13.893Z,28.51
2019-04-06T11:19:44.013Z,28.64
2019-04-06T11:22:23.376Z,28.31
2019-04-06T11:24:59.543Z,28.31
2019-04-06T11:27:29.735Z,28.56
2019-04-06T11:30:12.147Z,28.47
2019-04-06T11:32:34.348Z,28.85
2019-04-06T11:35:10.601Z,29.70
2019-04-06T11:37:46.486Z,30.40
2019-04-06T11:40:28.762Z,30.63
2019-04-06T11:43:13.681Z,31.49
2019-04-06T11:45:43.867Z,32.11
2019-04-06T11:48:28.744Z,32.47
2019-04-06T11:51:14.230Z,31.20
2019-04-06T11:53:44.534Z,31.20
2019-04-06T11:56:17.398Z,29.80
2019-04-06T11:58:49.958Z,30.61
2019-04-06T12:01:20.097Z,31.84
2019-04-06T12:03:59.463Z,33.26
2019-04-06T12:06:35.964Z,33.95
2019-04-06T12:09:08.405Z,34.11
2019-04-06T12:11:41.080Z,34.32
2019-04-06T12:14:14.256Z,35.50
2019-04-06T12:16:44.419Z,35.26
2019-04-06T12:19:17.341Z,35.31
2019-04-06T12:22:02.505Z,36.00
2019-04-06T12:24:41.265Z,34.71
2019-04-06T12:27:26.144Z,34.74
2019-04-06T12:29:59.010Z,35.31
2019-04-06T12:32:45.355Z,34.88
2019-04-06T12:35:31.410Z,35.58
2019-04-06T12:38:04.476Z,35.48
2019-04-06T12:40:49.627Z,35.61
2019-04-06T12:43:31.259Z,36.20
2019-04-06T12:46:01.099Z,36.35
2019-04-06T12:48:37.346Z,36.14
2019-04-06T12:51:10.637Z,36.31
2019-04-06T12:53:40.741Z,36.32
2019-04-06T12:56:28.601Z,34.84
2019-04-06T12:59:02.115Z,35.16
2019-04-06T13:01:34.953Z,35.54
2019-04-06T13:04:11.060Z,33.55
2019-04-06T13:06:44.572Z,32.72
2019-04-06T13:09:29.824Z,31.91
2019-04-06T13:11:59.934Z,30.12
2019-04-06T13:14:33.273Z,29.96
2019-04-06T13:17:04.282Z,28.45
2019-04-06T13:19:34.414Z,28.45
2019-04-06T13:22:19.866Z,28.12
2019-04-06T13:25:08.409Z,27.88
2019-04-06T13:27:38.628Z,27.86
2019-04-06T13:30:08.928Z,27.72
2019-04-06T13:32:44.872Z,27.83
2019-04-06T13:35:15.268Z,27.20
2019-04-06T13:38:01.637Z,26.41
2019-04-06T13:40:44.070Z,26.25
2019-04-06T13:43:14.192Z,26.67
2019-04-06T13:45:50.286Z,27.18
2019-04-06T13:48:20.694Z,26.38
2019-04-06T13:50:50.804Z,25.44
2019-04-06T13:53:21.369Z,24.68
2019-04-06T13:55:51.853Z,24.33
2019-04-06T13:58:22.044Z,24.48
2019-04-06T14:01:12.633Z,25.40
2019-04-06T14:03:32.917Z,25.38
2019-04-06T14:06:09.455Z,25.48
2019-04-06T14:08:52.245Z,25.63
2019-04-06T14:11:34.623Z,25.63
2019-04-06T14:14:04.722Z,25.67
2019-04-06T14:16:34.845Z,26.02
2019-04-06T14:19:07.498Z,26.07
2019-04-06T14:21:46.869Z,25.52
2019-04-06T14:24:25.751Z,24.80
2019-04-06T14:27:14.095Z,25.05
2019-04-06T14:29:53.558Z,25.50
2019-04-06T14:32:23.713Z,26.06
2019-04-06T14:34:59.815Z,27.00
2019-04-06T14:37:50.617Z,27.97
2019-04-06T14:40:30.339Z,28.65
2019-04-06T14:43:11.138Z,29.03
2019-04-06T14:45:41.487Z,28.83
2019-04-06T14:48:20.613Z,28.91
2019-04-06T14:50:50.823Z,28.41
2019-04-06T14:53:27.134Z,28.24
2019-04-06T14:56:00.191Z,27.83
2019-04-06T14:58:33.129Z,27.15
2019-04-06T15:01:12.364Z,26.18
2019-04-06T15:03:59.060Z,25.81
2019-04-06T15:06:38.005Z,25.61
2019-04-06T15:09:19.023Z,25.34
2019-04-06T15:11:58.099Z,25.26
2019-04-06T15:14:34.319Z,25.18
2019-04-06T15:17:22.226Z,25.08
2019-04-06T15:19:58.516Z,25.10
2019-04-06T15:22:37.604Z,25.09
2019-04-06T15:25:08.426Z,25.06
2019-04-06T15:27:41.858Z,25.24
2019-04-06T15:30:12.664Z,25.21
2019-04-06T15:32:43.178Z,24.79
2019-04-06T15:35:13.606Z,24.42
2019-04-06T15:37:46.519Z,24.33
2019-04-06T15:40:17.007Z,24.13
2019-04-06T15:42:47.447Z,24.02
2019-04-06T15:45:20.367Z,23.56
2019-04-06T15:47:53.693Z,23.16
2019-04-06T15:50:39.094Z,22.91
2019-04-06T15:53:25.417Z,22.96
2019-04-06T15:55:55.525Z,22.97
2019-04-06T15:58:26.155Z,22.84
2019-04-06T16:00:56.423Z,22.69
2019-04-06T16:03:38.791Z,22.60
2019-04-06T16:06:20.818Z,22.41
2019-04-06T16:08:50.996Z,22.31
2019-04-06T16:11:23.656Z,22.21
2019-04-06T16:14:10.124Z,22.15
2019-04-06T16:16:49.144Z,22.13
2019-04-06T16:19:35.757Z,22.01
2019-04-06T16:22:06.748Z,21.65
2019-04-06T16:24:42.673Z,21.61
2019-04-06T16:27:20.131Z,21.61
2019-04-06T16:29:59.129Z,21.77
2019-04-06T16:32:33.508Z,21.71
2019-04-06T16:35:26.854Z,21.56
2019-04-06T16:37:57.429Z,21.57
2019-04-06T16:40:37.029Z,21.51
2019-04-06T16:43:09.889Z,21.58
2019-04-06T16:45:52.231Z,21.54
2019-04-06T16:48:24.735Z,21.40
2019-04-06T16:51:00.648Z,21.24
2019-04-06T16:53:47.117Z,21.11
2019-04-06T16:56:20.057Z,21.10
2019-04-06T16:58:58.899Z,21.05
2019-04-06T17:01:32.067Z,20.97
2019-04-06T17:04:18.456Z,21.10
2019-04-06T17:06:48.972Z,21.13
2019-04-06T17:09:22.038Z,21.16
2019-04-06T17:11:55.572Z,21.05
2019-04-06T17:14:32.141Z,20.96
2019-04-06T17:17:08.336Z,20.86
2019-04-06T17:19:38.467Z,20.82
2019-04-06T17:22:27.108Z,20.77
2019-04-06T17:25:00.041Z,20.83
2019-04-06T17:27:30.260Z,20.82
2019-04-06T17:30:06.448Z,20.78
2019-04-06T17:32:40.033Z,20.63
2019-04-06T17:35:13.769Z,20.52
2019-04-06T17:37:58.656Z,20.59
2019-04-06T17:40:44.595Z,20.59
2019-04-06T17:43:14.762Z,20.53
2019-04-06T17:45:47.598Z,20.51
2019-04-06T17:48:33.992Z,20.46
2019-04-06T17:51:06.578Z,20.42
2019-04-06T17:53:39.857Z,20.31
2019-04-06T17:56:29.937Z,20.24
2019-04-06T17:59:16.553Z,20.15
2019-04-06T18:01:49.023Z,20.09
2019-04-06T18:04:19.481Z,20.14
2019-04-06T18:06:50.028Z,20.08
2019-04-06T18:09:36.401Z,19.98
2019-04-06T18:12:12.827Z,19.95
2019-04-06T18:14:41.486Z,20.01
2019-04-06T18:17:10.209Z,19.93
2019-04-06T18:19:38.902Z,19.81
2019-04-06T18:22:07.875Z,19.77
2019-04-06T18:24:36.824Z,19.72
2019-04-06T18:27:05.222Z,19.66
2019-04-06T18:29:34.626Z,19.65
2019-04-06T18:32:08.375Z,19.67
2019-04-06T18:34:36.914Z,19.63
2019-04-06T18:37:06.963Z,19.61
2019-04-06T18:39:35.771Z,19.49
2019-04-06T18:42:04.433Z,19.51
2019-04-06T18:44:32.992Z,19.52
2019-04-06T18:47:02.012Z,19.58
2019-04-06T18:49:30.637Z,19.48
2019-04-06T18:51:59.185Z,19.49
2019-04-06T18:54:27.667Z,19.47
2019-04-06T18:56:56.124Z,19.55
2019-04-06T18:59:24.853Z,19.47
2019-04-06T19:01:54.074Z,19.33
2019-04-06T19:04:22.690Z,19.22
2019-04-06T19:06:51.238Z,19.18
2019-04-06T19:09:23.784Z,19.11
2019-04-06T19:11:55.019Z,19.07
2019-04-06T19:14:20.528Z,19.09
2019-04-06T19:16:48.934Z,18.97
2019-04-06T19:19:17.318Z,18.95
2019-04-06T19:21:46.730Z,18.95
2019-04-06T19:24:15.504Z,18.91
2019-04-06T19:26:44.157Z,18.84
2019-04-06T19:29:12.636Z,18.77
2019-04-06T19:31:41.200Z,18.72
2019-04-06T19:34:10.290Z,18.72
2019-04-06T19:36:38.710Z,18.70
2019-04-06T19:39:10.787Z,18.70
2019-04-06T19:41:39.507Z,18.55
2019-04-06T19:44:08.065Z,18.57
2019-04-06T19:46:36.444Z,18.45
2019-04-06T19:49:04.953Z,18.47
2019-04-06T19:51:33.531Z,18.43
2019-04-06T19:54:04.691Z,18.36
2019-04-06T19:56:32.357Z,18.33
2019-04-06T19:59:01.819Z,18.32
2019-04-06T20:01:30.746Z,18.23
2019-04-06T20:03:59.346Z,18.24
2019-04-06T20:06:27.952Z,18.23
2019-04-06T20:08:57.787Z,18.22
2019-04-06T20:11:26.615Z,18.16
2019-04-06T20:13:55.189Z,18.17
2019-04-06T20:16:23.621Z,18.10
2019-04-06T20:18:52.174Z,18.03
2019-04-06T20:21:20.720Z,17.99
2019-04-06T20:23:49.591Z,17.92
2019-04-06T20:26:18.489Z,17.90
2019-04-06T20:28:47.157Z,17.80
2019-04-06T20:31:15.991Z,17.84
2019-04-06T20:33:50.318Z,17.84
2019-04-06T20:36:15.139Z,17.81
2019-04-06T20:38:43.540Z,17.72
2019-04-06T20:41:12.134Z,17.66
2019-04-06T20:43:40.840Z,17.65
2019-04-06T20:46:09.731Z,17.59
2019-04-06T20:48:38.503Z,17.55
2019-04-06T20:51:07.258Z,17.48
2019-04-06T20:53:35.726Z,17.42
2019-04-06T20:56:04.228Z,17.44
2019-04-06T20:58:33.626Z,17.38
2019-04-06T21:01:02.707Z,17.34
2019-04-06T21:03:31.146Z,17.30
2019-04-06T21:05:59.606Z,17.25
2019-04-06T21:08:28.607Z,17.26
2019-04-06T21:10:57.826Z,17.16
2019-04-06T21:13:26.721Z,17.11
2019-04-06T21:15:55.550Z,17.08
2019-04-06T21:18:24.365Z,17.06
2019-04-06T21:20:53.335Z,17.04
2019-04-06T21:23:21.871Z,16.94
2019-04-06T21:25:50.838Z,16.89
2019-04-06T21:28:19.832Z,16.84
2019-04-06T21:30:48.989Z,16.85
2019-04-06T21:33:17.490Z,16.83
2019-04-06T21:35:45.887Z,16.75
2019-04-06T21:38:14.287Z,16.71
2019-04-06T21:40:43.357Z,16.71
2019-04-06T21:43:12.268Z,16.70
2019-04-06T21:45:40.911Z,16.66
2019-04-06T21:48:09.500Z,16.66
2019-04-06T21:50:38.617Z,16.62
2019-04-06T21:53:07.156Z,16.57
2019-04-06T21:55:35.666Z,16.54
2019-04-06T21:58:04.200Z,16.52
2019-04-06T22:00:52.705Z,16.47
2019-04-06T22:03:21.433Z,16.47
2019-04-06T22:05:50.507Z,16.47
2019-04-06T22:08:19.129Z,16.41
2019-04-06T22:10:47.931Z,16.36
2019-04-06T22:13:16.401Z,16.35
2019-04-06T22:15:45.144Z,16.33
2019-04-06T22:18:13.562Z,16.28
2019-04-06T22:20:42.150Z,16.29
2019-04-06T22:23:10.571Z,16.18
2019-04-06T22:25:39.057Z,16.16
2019-04-06T22:28:07.420Z,16.15
2019-04-06T22:30:36.033Z,16.11
2019-04-06T22:33:04.906Z,16.09
2019-04-06T22:35:33.994Z,16.02
2019-04-06T22:38:02.471Z,16.00
2019-04-06T22:40:31.419Z,16.03
2019-04-06T22:43:00.062Z,15.98
2019-04-06T22:45:30.075Z,15.90
2019-04-06T22:47:58.692Z,15.91
2019-04-06T22:50:28.058Z,15.88
2019-04-06T22:52:57.118Z,15.93
2019-04-06T22:55:25.572Z,15.89
2019-04-06T22:57:54.017Z,15.87
2019-04-06T23:00:39.898Z,15.84
2019-04-06T23:03:15.986Z,15.80
2019-04-06T23:05:46.081Z,15.74
2019-04-06T23:08:14.595Z,15.69
2019-04-06T23:10:43.174Z,15.70
2019-04-06T23:13:12.285Z,15.68
2019-04-06T23:15:42.215Z,15.64
2019-04-06T23:18:10.714Z,15.58
2019-04-06T23:20:39.195Z,15.57
2019-04-06T23:23:07.709Z,15.57
2019-04-06T23:25:37.170Z,15.52
2019-04-06T23:28:05.860Z,15.52
2019-04-06T23:30:34.706Z,15.52
2019-04-06T23:33:03.844Z,15.47
2019-04-06T23:35:32.949Z,15.43
2019-04-06T23:38:01.944Z,15.43
2019-04-06T23:40:31.163Z,15.38
2019-04-06T23:42:59.690Z,15.35
2019-04-06T23:45:28.784Z,15.35
2019-04-06T23:47:57.211Z,15.33
2019-04-06T23:50:25.684Z,15.33
2019-04-06T23:52:54.098Z,15.28
2019-04-06T23:55:22.565Z,15.27
2019-04-06T23:57:51.081Z,15.25
